Time;durP1;ratioP1;P1;durP2;ratioP2;P2;SDS_P1;SDS_P2;PMS_P1;PMS_P2;Temp;Humidity;BMP_temperature;BMP_pressure;BME280_temperature;BME280_humidity;BME280_pressure;Samples;Min_cycle;Max_cycle;Signal;HPM_P1;HPM_P2
2022/06/17 00:00:48;;;;;;;5.78;2.40;;;;;;;25.14;37.63;101463.41;5014031;28;20026;-85
2022/06/17 00:03:14;;;;;;;5.85;2.42;;;;;;;25.21;37.46;101453.44;4996401;28;20679;-84
2022/06/17 00:05:40;;;;;;;4.68;1.90;;;;;;;25.07;37.69;101452.19;4996273;28;20060;-84
2022/06/17 00:08:15;;;;;;;5.40;2.03;;;;;;;25.24;37.71;101452.63;4996514;28;20033;-85
2022/06/17 00:10:41;;;;;;;6.78;1.85;;;;;;;25.10;37.98;101448.63;4996469;28;20369;-84
2022/06/17 00:13:13;;;;;;;4.93;2.10;;;;;;;25.00;38.30;101443.75;4996773;28;20040;-84
2022/06/17 00:15:38;;;;;;;5.22;2.20;;;;;;;25.14;37.94;101443.03;4995965;28;20494;-90
2022/06/17 00:18:04;;;;;;;4.57;2.17;;;;;;;25.15;38.11;101436.22;4996334;28;20029;-85
2022/06/17 00:20:33;;;;;;;4.10;1.75;;;;;;;25.11;38.08;101432.66;5013878;28;20072;-91
2022/06/17 00:23:01;;;;;;;5.07;1.63;;;;;;;25.11;38.28;101421.47;4996829;28;20041;-92
2022/06/17 00:25:34;;;;;;;5.85;1.80;;;;;;;25.08;38.73;101425.03;4996418;28;20121;-87
2022/06/17 00:28:00;;;;;;;5.50;1.75;;;;;;;24.94;38.78;101410.97;4996444;28;20026;-93
2022/06/17 00:30:30;;;;;;;3.65;1.88;;;;;;;25.14;38.36;101417.84;4996260;28;20495;-85
2022/06/17 00:32:59;;;;;;;6.90;2.05;;;;;;;25.22;38.39;101411.06;4996245;28;20472;-84
2022/06/17 00:35:38;;;;;;;6.13;2.70;;;;;;;25.27;38.06;101405.09;5013838;28;20036;-84
2022/06/17 00:38:05;;;;;;;7.53;2.78;;;;;;;25.24;38.17;101402.28;4996317;28;20041;-84
2022/06/17 00:40:34;;;;;;;5.18;2.33;;;;;;;25.29;37.81;101399.91;4996098;28;20065;-84
2022/06/17 00:43:06;;;;;;;3.92;2.03;;;;;;;25.25;37.90;101399.13;4996229;28;20026;-92
2022/06/17 00:45:40;;;;;;;4.53;1.63;;;;;;;25.11;38.31;101397.09;4996019;28;20026;-84
2022/06/17 00:48:16;;;;;;;5.72;1.90;;;;;;;25.55;37.63;101395.13;4995692;28;20045;-85
2022/06/17 00:50:56;;;;;;;4.28;1.88;;;;;;;25.99;36.89;101400.31;4995907;28;20030;-84
2022/06/17 00:53:30;;;;;;;5.47;2.45;;;;;;;26.17;36.23;101394.69;4995599;28;20060;-86
2022/06/17 00:56:04;;;;;;;5.57;2.08;;;;;;;25.38;37.77;101396.72;4995179;28;20030;-84
2022/06/17 00:58:34;;;;;;;6.13;2.25;;;;;;;25.35;37.97;101392.72;5013675;28;20033;-89
2022/06/17 01:01:02;;;;;;;7.75;1.92;;;;;;;25.22;38.47;101382.31;4996052;28;20018;-83
2022/06/17 01:03:33;;;;;;;3.38;1.90;;;;;;;25.23;38.34;101381.91;4995847;28;20184;-83
2022/06/17 01:06:07;;;;;;;4.85;2.00;;;;;;;25.62;37.49;101383.94;4995436;28;20041;-84
2022/06/17 01:11:33;;;;;;;3.50;2.00;;;;;;;25.58;37.79;101380.34;5027655;28;20431;-83
2022/06/17 01:14:01;;;;;;;7.35;2.05;;;;;;;25.37;37.98;101379.13;5032620;28;20057;-93
2022/06/17 01:16:30;;;;;;;4.82;1.85;;;;;;;25.31;37.97;101371.53;5015242;28;20060;-84
2022/06/17 01:18:57;;;;;;;;;;;;;;;25.37;38.14;101381.13;5015843;28;20038;-84
2022/06/17 01:22:12;;;;;;;3.97;1.80;;;;;;;25.43;37.95;101371.94;5015129;28;20460;-85
2022/06/17 01:24:38;;;;;;;5.28;1.92;;;;;;;25.40;37.87;101372.75;5028857;28;20506;-84
2022/06/17 01:27:04;;;;;;;4.97;1.90;;;;;;;25.26;38.57;101363.56;5014917;28;20116;-83
2022/06/17 01:29:32;;;;;;;7.18;2.60;;;;;;;25.36;37.97;101360.75;5014947;28;20117;-85
2022/06/17 01:31:58;;;;;;;3.08;1.88;;;;;;;25.37;38.26;101353.94;5014799;28;20468;-84
2022/06/17 01:34:24;;;;;;;5.60;2.15;;;;;;;25.73;37.30;101343.56;5032496;28;20030;-85
2022/06/17 01:36:51;;;;;;;7.68;2.75;;;;;;;25.79;37.40;101335.56;5032783;28;20372;-87
2022/06/17 01:39:17;;;;;;;5.03;2.00;;;;;;;25.43;38.21;101332.78;5015093;28;20086;-85
2022/06/17 01:41:46;;;;;;;5.72;2.38;;;;;;;25.33;38.31;101333.59;5014912;28;20034;-88
2022/06/17 01:44:17;;;;;;;12.20;5.43;;;;;;;25.31;38.31;101324.78;5014932;28;20036;-84
2022/06/17 01:46:45;;;;;;;5.15;1.92;;;;;;;25.39;38.43;101326.41;5032816;28;20025;-84
2022/06/17 01:49:29;;;;;;;2.90;1.77;;;;;;;25.35;38.42;101320.00;5014829;28;20108;-84
2022/06/17 01:52:04;;;;;;;4.63;2.05;;;;;;;25.34;38.43;101318.41;5014923;28;20022;-85
2022/06/17 01:54:35;;;;;;;3.42;1.83;;;;;;;25.30;38.49;101320.38;5014978;28;20030;-85
2022/06/17 01:57:03;;;;;;;4.18;1.80;;;;;;;25.37;38.53;101309.19;5014770;28;20026;-84
2022/06/17 01:59:39;;;;;;;4.40;2.25;;;;;;;25.55;37.90;101312.00;5015050;28;20029;-84
2022/06/17 02:02:08;;;;;;;4.50;2.65;;;;;;;25.41;38.23;101296.03;5012172;28;20029;-92
2022/06/17 02:04:37;;;;;;;7.65;2.65;;;;;;;25.38;38.52;101296.00;5015096;28;20026;-85
2022/06/17 02:07:03;;;;;;;;;;;;;;;25.15;39.07;101294.41;5015368;28;20120;-92
2022/06/17 02:09:29;;;;;;;4.50;2.22;;;;;;;25.21;38.87;101291.22;5036040;28;19999;-91
2022/06/17 02:11:55;;;;;;;4.35;2.25;;;;;;;25.18;39.02;101288.03;5036123;28;20475;-86
2022/06/17 02:14:22;;;;;;;5.80;2.63;;;;;;;25.22;38.90;101290.03;5018586;28;20513;-86
2022/06/17 02:16:53;;;;;;;5.18;2.35;;;;;;;25.22;39.39;101288.03;5014359;28;20404;-84
2022/06/17 02:19:23;;;;;;;6.35;2.35;;;;;;;25.38;38.84;101280.03;5014518;28;20029;-84
2022/06/17 02:21:56;;;;;;;5.53;2.83;;;;;;;25.25;39.25;101280.84;5014477;28;20064;-85
2022/06/17 02:24:24;;;;;;;4.28;2.45;;;;;;;25.16;39.11;101278.44;5014689;28;20026;-84
2022/06/17 02:26:50;;;;;;;4.38;2.20;;;;;;;25.21;38.87;101274.47;5014573;28;20036;-84
2022/06/17 02:29:17;;;;;;;7.30;2.30;;;;;;;25.11;39.12;101284.44;5014671;28;20022;-91
2022/06/17 02:31:44;;;;;;;4.45;2.10;;;;;;;25.12;39.17;101278.44;5014458;28;20025;-83
2022/06/17 02:34:12;;;;;;;3.70;1.90;;;;;;;25.08;39.36;101279.63;5015681;28;20554;-83
2022/06/17 02:36:54;;;;;;;5.82;2.53;;;;;;;25.08;39.23;101288.03;5014672;28;20041;-82
2022/06/17 02:39:20;;;;;;;4.88;2.25;;;;;;;25.20;39.03;101295.22;5014931;28;20093;-84
2022/06/17 02:41:48;;;;;;;5.68;2.33;;;;;;;25.00;39.60;101301.16;5014675;28;20038;-84
2022/06/17 02:44:37;;;;;;;6.35;2.63;;;;;;;24.96;39.49;101291.22;5014616;28;20034;-85
2022/06/17 02:47:03;;;;;;;4.30;1.70;;;;;;;24.84;39.96;101286.78;5014656;28;20026;-82
2022/06/17 02:49:34;;;;;;;4.05;2.38;;;;;;;24.94;39.45;101293.56;5015881;28;20037;-83
2022/06/17 02:52:06;;;;;;;4.38;2.35;;;;;;;24.92;39.95;101285.59;5014438;28;20029;-83
2022/06/17 02:54:44;;;;;;;6.65;2.25;;;;;;;25.01;39.82;101282.41;5014493;28;20026;-91
2022/06/17 02:57:20;;;;;;;3.55;2.08;;;;;;;24.90;40.33;101280.41;5014331;28;20021;-91
2022/06/17 03:00:08;;;;;;;6.25;2.28;;;;;;;24.91;40.29;101293.19;5015484;28;20029;-87
2022/06/17 03:02:43;;;;;;;8.02;2.38;;;;;;;25.09;39.99;101301.63;5014322;28;20034;-87
2022/06/17 03:05:31;;;;;;;4.30;2.33;;;;;;;24.79;40.99;101309.56;5014258;28;20021;-90
2022/06/17 03:07:59;;;;;;;5.43;2.38;;;;;;;24.91;40.72;101311.94;5014244;28;20026;-83
2022/06/17 03:10:41;;;;;;;5.20;2.30;;;;;;;25.05;40.56;101306.41;5014123;28;20511;-83
2022/06/17 03:13:18;;;;;;;5.38;2.78;;;;;;;25.20;40.11;101307.22;5014377;28;20030;-83
2022/06/17 03:15:47;;;;;;;5.15;2.75;;;;;;;25.24;40.01;101308.03;5016222;28;20055;-84
2022/06/17 03:18:14;;;;;;;5.88;3.25;;;;;;;25.29;39.76;101304.81;5016896;28;20030;-84
2022/06/17 03:20:41;;;;;;;6.97;2.88;;;;;;;25.25;40.06;101308.81;5016246;28;20668;-91
2022/06/17 03:23:16;;;;;;;4.32;2.60;;;;;;;25.28;39.95;101319.19;5034445;28;20040;-83
2022/06/17 03:25:56;;;;;;;6.60;2.58;;;;;;;25.35;40.15;101308.00;5034391;28;20025;-83
2022/06/17 03:28:29;;;;;;;;;;;;;;;25.32;40.14;101309.63;5017347;28;20124;-92
2022/06/17 03:31:03;;;;;;;5.95;2.50;;;;;;;25.40;40.02;101288.84;5016794;28;20425;-84
2022/06/17 03:33:39;;;;;;;9.45;2.95;;;;;;;25.35;40.13;101303.22;5016628;28;20029;-83
2022/06/17 03:36:11;;;;;;;6.22;2.95;;;;;;;25.41;39.94;101314.81;5016417;28;20035;-83
2022/06/17 03:38:46;;;;;;;8.20;3.22;;;;;;;25.42;39.94;101316.41;5016652;28;20032;-91
2022/06/17 03:41:25;;;;;;;4.80;3.00;;;;;;;25.44;40.08;101303.59;5016543;28;20033;-90
2022/06/17 03:44:15;;;;;;;5.82;2.78;;;;;;;25.39;40.21;101308.78;5016695;28;20036;-92
2022/06/17 03:47:04;;;;;;;5.85;3.28;;;;;;;25.43;40.28;101304.81;5005043;28;20060;-83
2022/06/17 03:49:41;;;;;;;5.30;3.17;;;;;;;25.39;40.13;101301.22;5016727;28;20018;-83
2022/06/17 03:52:28;;;;;;;8.02;3.22;;;;;;;25.35;40.63;101297.63;5016329;28;20022;-82
2022/06/17 03:54:53;;;;;;;11.82;4.32;;;;;;;25.40;40.53;101291.63;5015978;28;20096;-83
2022/06/17 03:57:19;;;;;;;6.15;2.85;;;;;;;25.35;40.63;101292.03;5033753;28;20029;-92
2022/06/17 03:59:49;;;;;;;4.82;2.72;;;;;;;25.36;40.89;101284.44;5033878;28;20026;-83
2022/06/17 04:02:16;;;;;;;6.38;3.42;;;;;;;25.34;40.83;101281.25;5015970;28;20044;-83
2022/06/17 04:04:51;;;;;;;8.55;3.10;;;;;;;25.25;40.93;101262.06;5016031;28;20029;-83
2022/06/17 04:07:17;;;;;;;4.70;3.30;;;;;;;25.27;40.69;101256.06;5033943;28;20026;-83
2022/06/17 04:09:45;;;;;;;7.75;2.75;;;;;;;25.25;41.04;101258.50;5016107;28;20029;-82
2022/06/17 04:12:14;;;;;;;5.78;3.00;;;;;;;25.16;41.18;101247.69;5016091;28;20025;-83
2022/06/17 04:15:14;;;;;;;7.72;2.63;;;;;;;25.11;40.37;101239.72;5016131;28;20030;-82
2022/06/17 04:17:43;;;;;;;8.32;2.67;;;;;;;25.08;40.28;101240.50;5033730;28;20136;-82
2022/06/17 04:20:30;;;;;;;5.38;1.65;;;;;;;25.10;39.72;101243.72;5016252;28;20095;-89
2022/06/17 04:23:02;;;;;;;4.10;1.33;;;;;;;25.01;37.47;101240.47;5016122;28;20032;-83
2022/06/17 04:25:45;;;;;;;4.72;1.35;;;;;;;25.09;36.79;101242.09;5016145;28;20422;-84
2022/06/17 04:28:16;;;;;;;2.13;1.17;;;;;;;25.13;36.33;101243.69;5016158;28;20025;-90
2022/06/17 04:30:49;;;;;;;4.25;1.10;;;;;;;25.21;35.18;101244.50;5015545;28;20025;-89
2022/06/17 04:33:26;;;;;;;4.00;1.02;;;;;;;25.23;35.21;101258.06;5015376;28;20076;-83
2022/06/17 04:36:07;;;;;;;8.55;1.20;;;;;;;25.20;33.98;101250.50;5016141;28;20468;-83
2022/06/17 04:38:48;;;;;;;5.68;1.77;;;;;;;25.29;33.82;101251.66;5033797;28;20025;-92
2022/06/17 04:41:16;;;;;;;6.38;1.15;;;;;;;25.30;33.54;101241.28;5016124;28;20029;-91
2022/06/17 04:43:47;;;;;;;2.40;1.10;;;;;;;25.34;32.94;101240.09;5016118;28;20033;-86
2022/06/17 04:46:29;;;;;;;6.28;1.40;;;;;;;25.26;31.93;101235.69;5015868;28;20085;-90
2022/06/17 04:48:57;;;;;;;6.22;1.55;;;;;;;25.38;32.25;101235.28;5033576;28;20033;-84
2022/06/17 04:51:28;;;;;;;3.92;1.40;;;;;;;25.40;32.28;101241.28;5033197;28;20080;-84
2022/06/17 04:53:54;;;;;;;6.82;1.40;;;;;;;25.49;32.29;101235.25;5015956;28;20036;-86
2022/06/17 04:56:45;;;;;;;5.03;1.48;;;;;;;25.40;32.33;101224.50;5016029;28;20361;-88
2022/06/17 04:59:22;;;;;;;5.55;1.50;;;;;;;25.57;32.49;101227.66;5015474;28;20025;-89
2022/06/17 05:01:49;;;;;;;2.42;1.35;;;;;;;25.65;32.46;101212.44;5015660;28;20124;-89
2022/06/17 05:04:16;;;;;;;6.38;1.63;;;;;;;25.66;32.29;101197.22;5033280;28;20060;-84
2022/06/17 05:06:42;;;;;;;3.78;1.58;;;;;;;25.66;32.67;101200.03;5015474;28;20395;-90
2022/06/17 05:09:24;;;;;;;5.10;1.70;;;;;;;25.68;33.15;101215.19;5015758;28;20025;-89
2022/06/17 05:11:59;;;;;;;9.48;1.70;;;;;;;25.69;33.07;101216.81;5015701;28;20032;-90
2022/06/17 05:14:52;;;;;;;3.88;1.45;;;;;;;25.64;33.67;101208.03;5016137;28;20026;-84
2022/06/17 05:17:19;;;;;;;13.77;3.10;;;;;;;25.61;33.98;101217.22;5012136;28;20069;-91
2022/06/17 05:19:44;;;;;;;5.80;2.05;;;;;;;25.63;33.88;101212.03;5012615;28;20034;-88
2022/06/17 05:22:34;;;;;;;3.83;1.95;;;;;;;25.67;34.22;101219.22;5013462;28;20550;-83
2022/06/17 05:25:03;;;;;;;4.90;1.80;;;;;;;25.75;34.12;101224.81;5013493;28;20044;-90
2022/06/17 05:27:29;;;;;;;4.97;1.65;;;;;;;25.95;33.65;101221.13;5012402;28;20026;-84
2022/06/17 05:29:55;;;;;;;10.18;2.83;;;;;;;25.88;34.23;101212.78;5012260;28;20095;-84
2022/06/17 05:32:21;;;;;;;7.18;2.15;;;;;;;25.90;34.60;101220.75;5011859;28;20030;-92
2022/06/17 05:34:48;;;;;;;6.82;2.65;;;;;;;25.92;34.65;101223.94;5011697;28;20404;-90
2022/06/17 05:37:14;;;;;;;6.43;2.15;;;;;;;25.81;35.09;101220.41;5011817;28;20603;-82
2022/06/17 05:39:40;;;;;;;4.50;2.20;;;;;;;25.94;34.85;101213.94;5013417;28;20054;-90
2022/06/17 05:42:06;;;;;;;6.30;1.90;;;;;;;25.94;35.07;101202.75;5011968;28;20057;-82
2022/06/17 05:44:32;;;;;;;18.40;2.95;;;;;;;26.08;34.88;101221.50;5015323;28;20076;-83
2022/06/17 05:46:58;;;;;;;3.97;1.88;;;;;;;26.10;35.09;101215.47;5015512;28;20129;-83
2022/06/17 05:49:24;;;;;;;8.30;2.78;;;;;;;26.05;35.36;101216.69;5017198;28;20066;-93
2022/06/17 05:51:50;;;;;;;8.77;2.42;;;;;;;26.05;35.39;101207.50;5015871;28;20400;-87
2022/06/17 05:54:15;;;;;;;5.32;1.70;;;;;;;26.22;35.32;101192.59;5016837;28;20036;-92
2022/06/17 05:56:41;;;;;;;7.30;1.98;;;;;;;26.28;35.08;101190.94;5015576;28;20034;-83
2022/06/17 05:59:07;;;;;;;6.47;2.63;;;;;;;26.28;35.39;101200.16;5015595;28;20112;-83
2022/06/17 06:01:32;;;;;;;7.95;2.85;;;;;;;26.32;35.72;101202.16;5015573;28;20030;-81
2022/06/17 06:03:58;;;;;;;8.88;2.22;;;;;;;26.27;35.95;101211.78;5016541;28;20033;-93
2022/06/17 06:06:24;;;;;;;5.95;2.28;;;;;;;26.34;35.61;101211.72;5015672;28;20031;-88
2022/06/17 06:08:50;;;;;;;4.57;2.47;;;;;;;26.24;36.17;101207.00;5004756;28;20070;-91
2022/06/17 06:11:15;;;;;;;6.70;2.40;;;;;;;26.20;36.42;101221.00;4995374;28;20060;-84
2022/06/17 06:13:41;;;;;;;12.38;2.97;;;;;;;26.25;36.17;101226.19;4994738;28;20034;-83
2022/06/17 06:16:08;;;;;;;5.80;2.28;;;;;;;26.38;35.93;101212.50;5001112;28;20515;-94
2022/06/17 06:18:36;;;;;;;10.07;2.97;;;;;;;26.33;36.15;101214.94;5002731;28;20400;-84
2022/06/17 06:21:05;;;;;;;4.82;2.17;;;;;;;26.39;36.18;101214.13;5006865;28;20063;-83
2022/06/17 06:23:35;;;;;;;7.38;2.42;;;;;;;26.39;36.37;101219.75;5015668;28;20033;-89
2022/06/17 06:26:02;;;;;;;7.70;2.25;;;;;;;26.34;36.51;101220.13;5012586;28;20125;-84
2022/06/17 06:28:28;;;;;;;5.78;2.88;;;;;;;26.10;36.96;101221.88;4998228;28;20026;-84
2022/06/17 06:31:01;;;;;;;7.43;2.65;;;;;;;26.07;37.40;101208.69;5000485;28;20029;-87
2022/06/17 06:33:27;;;;;;;9.10;3.17;;;;;;;26.20;37.00;101223.00;5007831;28;20400;-84
2022/06/17 06:35:52;;;;;;;9.10;2.80;;;;;;;26.21;36.81;101225.41;5023686;28;20022;-83
2022/06/17 06:38:18;;;;;;;7.78;2.95;;;;;;;26.37;36.78;101215.69;5008676;28;20069;-85
2022/06/17 06:40:44;;;;;;;7.72;3.00;;;;;;;26.38;36.72;101218.13;5035815;28;20025;-83
2022/06/17 06:43:13;;;;;;;13.57;3.67;;;;;;;26.24;37.25;101226.59;5017978;28;20033;-83
2022/06/17 06:45:38;;;;;;;5.78;2.83;;;;;;;26.39;36.97;101216.94;5035076;28;20029;-90
2022/06/17 06:48:06;;;;;;;5.70;2.53;;;;;;;26.31;37.21;101215.34;5035501;28;20476;-86
2022/06/17 06:50:35;;;;;;;8.52;2.53;;;;;;;26.40;37.02;101210.13;5012945;28;20018;-83
2022/06/17 06:53:00;;;;;;;7.97;3.83;;;;;;;26.37;37.47;101224.91;4997752;28;20080;-82
2022/06/17 06:55:27;;;;;;;13.50;3.13;;;;;;;26.47;37.26;101210.06;4996660;28;20476;-83
2022/06/17 06:57:57;;;;;;;8.45;2.80;;;;;;;26.43;37.27;101214.09;4997551;28;20038;-83
2022/06/17 07:00:33;;;;;;;11.10;3.45;;;;;;;26.49;37.42;101206.84;4998171;28;20558;-84
2022/06/17 07:02:59;;;;;;;8.68;2.83;;;;;;;26.55;37.20;101211.63;4997443;28;20037;-90
2022/06/17 07:05:25;;;;;;;7.80;3.30;;;;;;;26.60;37.26;101216.00;4997538;28;20021;-83
2022/06/17 07:07:50;;;;;;;9.40;2.97;;;;;;;26.34;38.29;101231.34;4997392;28;20029;-84
2022/06/17 07:10:22;;;;;;;10.48;2.97;;;;;;;26.25;38.15;101228.19;4997396;28;20054;-85
2022/06/17 07:12:48;;;;;;;12.48;4.40;;;;;;;26.49;37.79;101229.28;5027402;28;20071;-84
2022/06/17 07:15:14;;;;;;;9.45;3.40;;;;;;;26.35;38.12;101237.72;5014576;28;20033;-93
2022/06/17 07:18:03;;;;;;;8.43;3.03;;;;;;;26.42;38.14;101232.13;5011416;28;20057;-83
2022/06/17 07:20:36;;;;;;;5.63;2.55;;;;;;;26.56;37.98;101232.03;5015296;28;20439;-95
2022/06/17 07:23:07;;;;;;;10.32;3.88;;;;;;;26.57;37.76;101218.81;5025352;28;20026;-80
2022/06/17 07:25:33;;;;;;;8.38;3.40;;;;;;;26.56;37.81;101223.63;5009335;28;20037;-85
2022/06/17 07:28:00;;;;;;;16.48;4.95;;;;;;;26.41;38.55;101230.53;5015585;28;20029;-83
2022/06/17 07:30:26;;;;;;;8.05;3.08;;;;;;;26.53;38.31;101227.25;5033554;28;20017;-80
2022/06/17 07:32:52;;;;;;;9.35;3.70;;;;;;;26.35;38.58;101232.94;5032794;28;20036;-81
2022/06/17 07:35:18;;;;;;;6.78;2.63;;;;;;;26.23;39.08;101245.41;5015178;28;20025;-83
2022/06/17 07:40:30;;;;;;;7.97;3.47;;;;;;;26.61;38.28;101258.84;5034051;28;20393;-80
2022/06/17 07:42:58;;;;;;;7.80;2.63;;;;;;;26.73;38.37;101261.13;5016542;28;20432;-86
2022/06/17 07:45:24;;;;;;;7.38;3.22;;;;;;;26.82;38.34;101273.47;5033004;28;20029;-79
2022/06/17 07:47:52;;;;;;;8.50;3.10;;;;;;;26.76;38.46;101274.34;5034941;28;20365;-81
2022/06/17 07:50:22;;;;;;;8.07;3.15;;;;;;;26.69;38.72;101271.59;5034632;28;20480;-89
2022/06/17 07:52:48;;;;;;;11.27;3.33;;;;;;;26.83;38.38;101272.28;5017317;28;20018;-88
2022/06/17 07:55:14;;;;;;;7.63;3.45;;;;;;;26.86;38.49;101284.69;5029064;28;20033;-84
2022/06/17 07:57:41;;;;;;;9.25;3.25;;;;;;;26.94;38.32;101286.22;5003147;28;20025;-87
2022/06/17 08:00:10;;;;;;;6.47;3.15;;;;;;;26.88;38.70;101292.66;5022464;28;20036;-80
2022/06/17 08:02:35;;;;;;;9.52;3.75;;;;;;;26.94;38.51;101291.03;5008925;28;20021;-81
2022/06/17 08:05:01;;;;;;;11.15;4.03;;;;;;;27.28;37.78;101285.56;5014421;28;20029;-81
2022/06/17 08:07:28;;;;;;;9.70;3.05;;;;;;;27.37;37.84;101291.50;5031667;28;20520;-80
2022/06/17 08:09:53;;;;;;;7.88;2.65;;;;;;;27.28;38.19;101291.16;5015594;28;20618;-82
2022/06/17 08:12:19;;;;;;;20.90;4.22;;;;;;;27.18;38.43;101294.88;5030528;28;20029;-84
2022/06/17 08:14:46;;;;;;;8.23;3.53;;;;;;;27.44;38.11;101294.25;4998346;28;20464;-82
2022/06/17 08:17:14;;;;;;;9.77;3.30;;;;;;;27.44;38.16;101294.25;4995018;28;20133;-82
2022/06/17 08:19:41;;;;;;;10.30;4.05;;;;;;;27.54;37.83;101287.72;4998123;28;20561;-82
2022/06/17 08:22:07;;;;;;;8.27;3.05;;;;;;;27.51;38.14;101294.16;4999312;28;20124;-82
2022/06/17 08:24:33;;;;;;;12.63;6.03;;;;;;;27.70;37.88;101303.22;4998372;28;20770;-81
2022/06/17 08:26:59;;;;;;;10.82;3.22;;;;;;;27.59;37.81;101301.31;4999039;28;20033;-82
2022/06/17 08:29:26;;;;;;;10.70;3.35;;;;;;;27.73;37.81;101310.81;4999507;28;20120;-82
2022/06/17 08:31:52;;;;;;;17.00;4.95;;;;;;;27.77;37.69;101309.56;4999369;28;20033;-82
2022/06/17 08:34:18;;;;;;;9.70;2.92;;;;;;;27.84;37.55;101311.50;5017562;28;20036;-82
2022/06/17 08:36:44;;;;;;;10.57;3.92;;;;;;;27.45;38.17;101309.06;5016924;28;20029;-82
2022/06/17 08:39:12;;;;;;;8.55;2.88;;;;;;;27.63;37.88;101324.50;5017611;28;20017;-82
2022/06/17 08:42:09;;;;;;;6.72;3.50;;;;;;;27.29;38.50;101326.44;4998564;28;20025;-82
2022/06/17 08:44:58;;;;;;;7.30;2.90;;;;;;;27.45;38.37;101334.31;4996150;28;20037;-82
2022/06/17 08:47:48;;;;;;;11.10;3.25;;;;;;;27.06;39.18;101319.41;4997068;28;20060;-82
2022/06/17 08:50:46;;;;;;;9.88;3.33;;;;;;;26.94;39.44;101328.28;4998272;28;20034;-81
2022/06/17 08:53:56;;;;;;;12.50;3.42;;;;;;;27.06;39.21;101329.84;4999102;28;20041;-81
2022/06/17 08:56:38;;;;;;;8.93;3.38;;;;;;;27.21;38.68;101336.94;4997254;28;20121;-82
2022/06/17 08:59:18;;;;;;;7.95;3.10;;;;;;;26.51;40.33;101353.75;4999245;28;20618;-82
2022/06/17 09:01:54;;;;;;;6.93;2.85;;;;;;;26.57;40.31;101362.53;5017087;28;20076;-82
2022/06/17 09:04:45;;;;;;;6.80;2.75;;;;;;;26.57;40.58;101364.53;4997705;28;20057;-81
2022/06/17 09:07:32;;;;;;;9.27;4.43;;;;;;;26.66;40.38;101356.47;5014262;28;20551;-87
2022/06/17 09:10:09;;;;;;;10.73;3.40;;;;;;;26.76;40.23;101361.25;5034635;28;20030;-82
2022/06/17 09:12:50;;;;;;;12.57;3.97;;;;;;;26.72;40.58;101371.66;5014866;28;20030;-81
2022/06/17 09:15:32;;;;;;;10.38;3.90;;;;;;;26.91;40.13;101373.19;5020695;28;20088;-83
2022/06/17 09:18:01;;;;;;;8.45;3.65;;;;;;;27.01;40.08;101369.50;5000461;28;20528;-82
2022/06/17 09:20:36;;;;;;;8.02;3.60;;;;;;;26.97;40.46;101371.50;5002640;28;20025;-82
2022/06/17 09:23:04;;;;;;;12.80;4.20;;;;;;;27.08;40.21;101373.06;5019295;28;20072;-83
2022/06/17 09:25:40;;;;;;;8.95;3.60;;;;;;;27.21;40.50;101378.22;5020174;28;20024;-83
2022/06/17 09:28:29;;;;;;;10.80;3.15;;;;;;;27.28;40.32;101389.34;5004125;28;20049;-82
2022/06/17 09:31:25;;;;;;;7.15;2.92;;;;;;;27.16;40.66;101382.25;5002138;28;20491;-82
2022/06/17 09:34:14;;;;;;;14.35;3.63;;;;;;;27.02;41.04;101383.09;5000525;28;20373;-82
2022/06/17 09:37:04;;;;;;;12.57;4.32;;;;;;;27.21;40.79;101389.44;5001805;28;20728;-82
2022/06/17 09:39:41;;;;;;;8.63;3.70;;;;;;;27.48;40.34;101384.00;5001812;28;20029;-82
2022/06/17 09:42:22;;;;;;;9.38;3.13;;;;;;;27.58;40.24;101371.88;5001388;28;20033;-81
2022/06/17 09:45:15;;;;;;;5.78;2.97;;;;;;;27.43;40.40;101384.44;5002685;28;20034;-82
2022/06/17 09:48:03;;;;;;;10.95;3.10;;;;;;;27.73;40.04;101383.78;5002010;28;21776;-83
2022/06/17 09:50:44;;;;;;;9.63;2.53;;;;;;;27.38;40.89;101380.06;5008637;28;20045;-82
2022/06/17 09:53:41;;;;;;;6.93;2.80;;;;;;;27.18;41.14;101391.03;5018652;28;20025;-84
2022/06/17 09:56:17;;;;;;;8.07;3.20;;;;;;;27.33;40.99;101391.72;5019033;28;20025;-86
2022/06/17 09:58:51;;;;;;;11.48;3.72;;;;;;;27.57;40.42;101393.53;5018650;28;20083;-84
2022/06/17 10:01:19;;;;;;;7.50;2.90;;;;;;;27.35;40.83;101398.50;5018629;28;20519;-84
2022/06/17 10:03:44;;;;;;;7.20;3.13;;;;;;;27.05;41.44;101395.53;5018485;28;20044;-84
2022/06/17 10:06:40;;;;;;;6.47;3.15;;;;;;;26.91;41.84;101392.81;5018776;28;20029;-90
2022/06/17 10:09:27;;;;;;;16.67;4.28;;;;;;;26.95;41.76;101397.16;5014540;28;20037;-91
2022/06/17 10:12:01;;;;;;;10.13;3.78;;;;;;;27.18;41.50;101391.03;5034798;28;20487;-81
2022/06/17 10:14:46;;;;;;;7.10;2.90;;;;;;;27.35;41.10;101381.69;5008912;28;20053;-82
2022/06/17 10:20:35;;;;;;;12.35;3.17;;;;;;;27.27;41.09;101391.38;5019528;28;21139;-82
2022/06/17 10:23:22;;;;;;;10.35;4.05;;;;;;;27.51;40.71;101386.78;5015260;28;20033;-82
2022/06/17 10:25:57;;;;;;;14.63;4.35;;;;;;;27.59;40.67;101388.31;5016922;28;20033;-81
2022/06/17 10:28:41;;;;;;;9.80;3.20;;;;;;;27.41;41.02;101401.69;5016307;28;20025;-82
2022/06/17 10:31:37;;;;;;;9.15;3.42;;;;;;;27.02;41.84;101404.75;5015046;28;20384;-81
2022/06/17 10:34:12;;;;;;;11.18;3.67;;;;;;;27.50;41.13;101387.19;5016955;28;20026;-83
2022/06/17 10:36:38;;;;;;;9.82;2.97;;;;;;;27.56;40.68;101391.94;5034276;28;20021;-82
2022/06/17 10:39:06;;;;;;;6.55;2.83;;;;;;;27.27;41.57;101404.59;5015681;28;20029;-82
2022/06/17 10:41:32;;;;;;;9.85;3.45;;;;;;;27.35;41.31;101417.34;5033117;28;20115;-81
2022/06/17 10:43:58;;;;;;;10.18;3.05;;;;;;;27.43;40.97;101420.91;5015401;28;20500;-82
2022/06/17 10:46:29;;;;;;;6.63;2.75;;;;;;;27.28;41.64;101415.44;5015642;28;20036;-81
2022/06/17 10:49:08;;;;;;;8.82;3.08;;;;;;;27.28;41.44;101420.22;5033579;28;20029;-81
2022/06/17 10:51:35;;;;;;;6.35;2.63;;;;;;;27.70;40.64;101419.13;5016086;28;20025;-84
2022/06/17 10:54:05;;;;;;;5.75;2.92;;;;;;;27.51;41.03;101426.09;5017012;28;20033;-81
2022/06/17 10:56:41;;;;;;;7.30;2.78;;;;;;;27.76;40.77;101425.09;5034712;28;20025;-81
2022/06/17 10:59:10;;;;;;;16.17;3.78;;;;;;;28.14;39.84;101434.34;5034852;28;20026;-81
2022/06/17 11:01:45;;;;;;;6.75;2.55;;;;;;;28.14;40.18;101429.53;5016686;28;20595;-81
2022/06/17 11:04:35;;;;;;;5.35;1.98;;;;;;;27.81;41.39;101441.47;5034766;28;20034;-81
2022/06/17 11:07:06;;;;;;;4.85;2.47;;;;;;;28.08;41.04;101439.63;5034734;28;20051;-81
2022/06/17 11:09:49;;;;;;;8.18;3.22;;;;;;;28.07;41.08;101449.28;5016609;28;20029;-80
2022/06/17 11:12:21;;;;;;;4.18;2.38;;;;;;;28.17;40.79;101453.97;5034585;28;20391;-80
2022/06/17 11:14:46;;;;;;;10.30;2.75;;;;;;;28.09;41.17;101451.66;5016723;28;20541;-81
2022/06/17 11:17:44;;;;;;;9.23;3.05;;;;;;;27.43;43.03;101454.59;5013127;28;20054;-82
2022/06/17 11:20:16;;;;;;;16.98;4.82;;;;;;;27.30;43.57;101452.28;4971183;28;20056;-83
2022/06/17 11:22:51;;;;;;;12.00;3.25;;;;;;;27.12;43.91;101460.00;5014239;28;20022;-82
2022/06/17 11:25:23;;;;;;;3.67;2.28;;;;;;;27.03;44.09;101471.63;5013552;28;20388;-86
2022/06/17 11:28:12;;;;;;;9.20;2.50;;;;;;;27.17;44.28;101456.75;5013422;28;20056;-81
2022/06/17 11:31:02;;;;;;;7.28;2.60;;;;;;;27.30;43.91;101462.72;5014596;28;20412;-81
2022/06/17 11:33:37;;;;;;;6.65;2.85;;;;;;;27.52;43.79;101466.16;5014269;28;20038;-80
2022/06/17 11:36:18;;;;;;;7.40;3.53;;;;;;;27.60;43.97;101464.91;5013379;28;20026;-81
2022/06/17 11:38:44;;;;;;;5.82;3.15;;;;;;;27.70;43.69;101464.03;5013056;28;20149;-81
2022/06/17 11:41:17;;;;;;;4.40;2.70;;;;;;;27.81;43.83;101476.00;5013848;28;20018;-81
2022/06/17 11:43:45;;;;;;;4.82;3.03;;;;;;;27.84;44.03;101479.97;5012852;28;20029;-81
2022/06/17 11:46:13;;;;;;;7.68;2.53;;;;;;;27.97;43.87;101467.03;5012936;28;20121;-82
2022/06/17 11:49:07;;;;;;;5.88;2.90;;;;;;;27.74;44.78;101484.47;5014035;28;20026;-81
2022/06/17 11:51:35;;;;;;;5.97;2.50;;;;;;;27.68;44.84;101476.91;5012715;28;20453;-82
2022/06/17 11:54:05;;;;;;;13.05;3.20;;;;;;;27.65;44.87;101479.28;5012709;28;20038;-81
2022/06/17 11:56:37;;;;;;;4.90;2.30;;;;;;;27.99;44.14;101475.84;5012965;28;20030;-82
2022/06/17 11:59:13;;;;;;;4.63;1.88;;;;;;;28.12;43.56;101476.91;5012640;28;20473;-81